sensor_id;sensor_type;location;lat;lon;timestamp;P1;durP1;ratioP1;P2;durP2;ratioP2
22007;SDS011;11168;56.976;24.168;2023-07-31T00:01:22;14.18;;;12.00;;
22007;SDS011;11168;56.976;24.168;2023-07-31T00:03:49;12.98;;;11.60;;
22007;SDS011;11168;56.976;24.168;2023-07-31T00:06:16;14.07;;;12.68;;
22007;SDS011;11168;56.976;24.168;2023-07-31T00:08:43;13.88;;;12.18;;
22007;SDS011;11168;56.976;24.168;2023-07-31T00:11:10;19.05;;;14.18;;
22007;SDS011;11168;56.976;24.168;2023-07-31T00:13:37;15.02;;;13.50;;
22007;SDS011;11168;56.976;24.168;2023-07-31T00:16:04;15.82;;;13.80;;
22007;SDS011;11168;56.976;24.168;2023-07-31T00:18:32;13.98;;;12.68;;
22007;SDS011;11168;56.976;24.168;2023-07-31T00:20:59;13.90;;;12.50;;
22007;SDS011;11168;56.976;24.168;2023-07-31T00:23:26;15.68;;;14.10;;
22007;SDS011;11168;56.976;24.168;2023-07-31T00:25:53;17.50;;;14.02;;
22007;SDS011;11168;56.976;24.168;2023-07-31T00:28:20;16.65;;;14.95;;
22007;SDS011;11168;56.976;24.168;2023-07-31T00:30:47;16.58;;;14.82;;
22007;SDS011;11168;56.976;24.168;2023-07-31T00:33:14;17.05;;;15.32;;
22007;SDS011;11168;56.976;24.168;2023-07-31T00:35:41;18.20;;;16.08;;
22007;SDS011;11168;56.976;24.168;2023-07-31T00:38:08;17.67;;;15.80;;
22007;SDS011;11168;56.976;24.168;2023-07-31T00:40:35;18.63;;;16.80;;
22007;SDS011;11168;56.976;24.168;2023-07-31T00:43:03;21.95;;;17.08;;
22007;SDS011;11168;56.976;24.168;2023-07-31T00:45:30;18.63;;;16.45;;
22007;SDS011;11168;56.976;24.168;2023-07-31T00:47:59;18.55;;;16.65;;
22007;SDS011;11168;56.976;24.168;2023-07-31T00:50:26;20.98;;;17.60;;
22007;SDS011;11168;56.976;24.168;2023-07-31T00:52:57;18.40;;;16.40;;
22007;SDS011;11168;56.976;24.168;2023-07-31T00:55:24;17.43;;;14.57;;
22007;SDS011;11168;56.976;24.168;2023-07-31T00:57:51;15.65;;;14.15;;
22007;SDS011;11168;56.976;24.168;2023-07-31T01:00:21;16.35;;;14.75;;
22007;SDS011;11168;56.976;24.168;2023-07-31T01:02:49;16.55;;;14.80;;
22007;SDS011;11168;56.976;24.168;2023-07-31T01:05:19;16.27;;;14.68;;
22007;SDS011;11168;56.976;24.168;2023-07-31T01:10:29;17.80;;;15.95;;
22007;SDS011;11168;56.976;24.168;2023-07-31T01:13:01;17.45;;;15.63;;
22007;SDS011;11168;56.976;24.168;2023-07-31T01:15:29;18.52;;;16.23;;
22007;SDS011;11168;56.976;24.168;2023-07-31T01:17:57;19.13;;;16.17;;
22007;SDS011;11168;56.976;24.168;2023-07-31T01:20:24;17.90;;;16.00;;
22007;SDS011;11168;56.976;24.168;2023-07-31T01:28:24;18.17;;;16.27;;
22007;SDS011;11168;56.976;24.168;2023-07-31T01:30:55;19.02;;;17.05;;
22007;SDS011;11168;56.976;24.168;2023-07-31T01:33:26;17.42;;;15.55;;
22007;SDS011;11168;56.976;24.168;2023-07-31T01:35:54;22.92;;;16.23;;
22007;SDS011;11168;56.976;24.168;2023-07-31T01:38:23;17.95;;;16.08;;
22007;SDS011;11168;56.976;24.168;2023-07-31T01:40:53;18.77;;;16.88;;
22007;SDS011;11168;56.976;24.168;2023-07-31T01:43:20;20.10;;;17.80;;
22007;SDS011;11168;56.976;24.168;2023-07-31T01:45:47;21.30;;;17.92;;
22007;SDS011;11168;56.976;24.168;2023-07-31T01:48:14;18.27;;;16.40;;
22007;SDS011;11168;56.976;24.168;2023-07-31T01:50:41;20.17;;;17.90;;
22007;SDS011;11168;56.976;24.168;2023-07-31T01:53:08;20.52;;;17.98;;
22007;SDS011;11168;56.976;24.168;2023-07-31T01:55:35;19.75;;;17.65;;
22007;SDS011;11168;56.976;24.168;2023-07-31T01:58:02;21.08;;;17.60;;
22007;SDS011;11168;56.976;24.168;2023-07-31T02:00:29;20.70;;;18.55;;
22007;SDS011;11168;56.976;24.168;2023-07-31T02:02:56;20.80;;;18.70;;
22007;SDS011;11168;56.976;24.168;2023-07-31T02:05:23;20.52;;;18.42;;
22007;SDS011;11168;56.976;24.168;2023-07-31T02:07:50;21.23;;;18.17;;
22007;SDS011;11168;56.976;24.168;2023-07-31T02:10:17;20.67;;;17.00;;
22007;SDS011;11168;56.976;24.168;2023-07-31T02:12:44;19.25;;;17.13;;
22007;SDS011;11168;56.976;24.168;2023-07-31T02:15:11;19.23;;;17.20;;
22007;SDS011;11168;56.976;24.168;2023-07-31T02:17:38;18.80;;;16.80;;
22007;SDS011;11168;56.976;24.168;2023-07-31T02:20:05;20.77;;;16.73;;
22007;SDS011;11168;56.976;24.168;2023-07-31T02:22:32;18.73;;;16.83;;
22007;SDS011;11168;56.976;24.168;2023-07-31T02:24:59;18.88;;;16.92;;
22007;SDS011;11168;56.976;24.168;2023-07-31T02:27:26;16.67;;;14.95;;
22007;SDS011;11168;56.976;24.168;2023-07-31T02:29:54;17.27;;;15.05;;
22007;SDS011;11168;56.976;24.168;2023-07-31T02:32:21;16.90;;;14.63;;
22007;SDS011;11168;56.976;24.168;2023-07-31T02:34:48;18.00;;;16.10;;
22007;SDS011;11168;56.976;24.168;2023-07-31T02:37:15;17.48;;;15.65;;
22007;SDS011;11168;56.976;24.168;2023-07-31T02:39:42;18.13;;;16.23;;
22007;SDS011;11168;56.976;24.168;2023-07-31T02:42:09;20.33;;;16.25;;
22007;SDS011;11168;56.976;24.168;2023-07-31T02:44:36;19.52;;;15.90;;
22007;SDS011;11168;56.976;24.168;2023-07-31T02:47:03;17.38;;;15.68;;
22007;SDS011;11168;56.976;24.168;2023-07-31T02:49:30;19.27;;;15.63;;
22007;SDS011;11168;56.976;24.168;2023-07-31T02:51:57;17.17;;;15.35;;
22007;SDS011;11168;56.976;24.168;2023-07-31T02:54:24;16.10;;;14.40;;
22007;SDS011;11168;56.976;24.168;2023-07-31T02:56:51;17.48;;;14.98;;
22007;SDS011;11168;56.976;24.168;2023-07-31T02:59:18;20.05;;;15.38;;
22007;SDS011;11168;56.976;24.168;2023-07-31T03:01:46;17.75;;;15.98;;
22007;SDS011;11168;56.976;24.168;2023-07-31T03:04:14;17.35;;;15.55;;
22007;SDS011;11168;56.976;24.168;2023-07-31T03:06:44;22.90;;;15.60;;
22007;SDS011;11168;56.976;24.168;2023-07-31T03:09:25;18.08;;;15.63;;
22007;SDS011;11168;56.976;24.168;2023-07-31T03:12:06;18.08;;;15.40;;
22007;SDS011;11168;56.976;24.168;2023-07-31T03:14:35;17.23;;;15.43;;
22007;SDS011;11168;56.976;24.168;2023-07-31T03:17:11;16.88;;;15.05;;
22007;SDS011;11168;56.976;24.168;2023-07-31T03:19:41;18.90;;;15.80;;
22007;SDS011;11168;56.976;24.168;2023-07-31T03:22:08;19.80;;;15.20;;
22007;SDS011;11168;56.976;24.168;2023-07-31T03:24:38;17.80;;;15.68;;
22007;SDS011;11168;56.976;24.168;2023-07-31T03:27:05;17.58;;;15.45;;
22007;SDS011;11168;56.976;24.168;2023-07-31T03:29:46;17.42;;;14.20;;
22007;SDS011;11168;56.976;24.168;2023-07-31T03:32:27;17.02;;;15.13;;
22007;SDS011;11168;56.976;24.168;2023-07-31T03:34:59;19.95;;;15.65;;
22007;SDS011;11168;56.976;24.168;2023-07-31T03:37:40;16.35;;;14.73;;
22007;SDS011;11168;56.976;24.168;2023-07-31T03:40:21;17.45;;;14.27;;
22007;SDS011;11168;56.976;24.168;2023-07-31T03:42:48;16.02;;;14.20;;
22007;SDS011;11168;56.976;24.168;2023-07-31T03:45:37;20.23;;;15.48;;
22007;SDS011;11168;56.976;24.168;2023-07-31T03:48:17;18.38;;;15.27;;
22007;SDS011;11168;56.976;24.168;2023-07-31T03:50:58;23.73;;;15.18;;
22007;SDS011;11168;56.976;24.168;2023-07-31T03:53:39;20.55;;;16.00;;
22007;SDS011;11168;56.976;24.168;2023-07-31T03:56:10;17.58;;;15.63;;
22007;SDS011;11168;56.976;24.168;2023-07-31T03:58:59;19.40;;;14.98;;
22007;SDS011;11168;56.976;24.168;2023-07-31T04:02:41;19.63;;;15.23;;
22007;SDS011;11168;56.976;24.168;2023-07-31T04:08:03;23.00;;;16.08;;
22007;SDS011;11168;56.976;24.168;2023-07-31T04:10:44;25.90;;;18.50;;
22007;SDS011;11168;56.976;24.168;2023-07-31T04:13:29;23.02;;;18.75;;
22007;SDS011;11168;56.976;24.168;2023-07-31T04:16:11;21.50;;;17.42;;
22007;SDS011;11168;56.976;24.168;2023-07-31T04:21:43;28.98;;;19.75;;
22007;SDS011;11168;56.976;24.168;2023-07-31T04:24:24;27.50;;;19.38;;
22007;SDS011;11168;56.976;24.168;2023-07-31T04:27:05;29.02;;;19.63;;
22007;SDS011;11168;56.976;24.168;2023-07-31T04:35:10;33.65;;;21.67;;
22007;SDS011;11168;56.976;24.168;2023-07-31T04:37:37;48.90;;;22.77;;
22007;SDS011;11168;56.976;24.168;2023-07-31T04:42:46;36.92;;;24.63;;
22007;SDS011;11168;56.976;24.168;2023-07-31T04:45:27;35.60;;;23.17;;
22007;SDS011;11168;56.976;24.168;2023-07-31T04:47:58;32.38;;;22.80;;
22007;SDS011;11168;56.976;24.168;2023-07-31T04:53:15;34.47;;;23.73;;
22007;SDS011;11168;56.976;24.168;2023-07-31T04:55:56;36.03;;;23.10;;
22007;SDS011;11168;56.976;24.168;2023-07-31T04:58:37;34.35;;;23.65;;
22007;SDS011;11168;56.976;24.168;2023-07-31T05:01:20;28.65;;;21.88;;
22007;SDS011;11168;56.976;24.168;2023-07-31T05:04:01;35.85;;;24.50;;
22007;SDS011;11168;56.976;24.168;2023-07-31T05:06:42;29.20;;;21.77;;
22007;SDS011;11168;56.976;24.168;2023-07-31T05:12:05;30.63;;;22.60;;
22007;SDS011;11168;56.976;24.168;2023-07-31T05:14:49;35.70;;;24.40;;
22007;SDS011;11168;56.976;24.168;2023-07-31T05:17:30;33.47;;;24.58;;
22007;SDS011;11168;56.976;24.168;2023-07-31T05:20:12;33.92;;;22.60;;
22007;SDS011;11168;56.976;24.168;2023-07-31T05:28:18;30.65;;;20.55;;
22007;SDS011;11168;56.976;24.168;2023-07-31T05:31:01;34.75;;;21.40;;
22007;SDS011;11168;56.976;24.168;2023-07-31T05:33:30;31.85;;;21.42;;
22007;SDS011;11168;56.976;24.168;2023-07-31T05:38:47;29.20;;;19.38;;
22007;SDS011;11168;56.976;24.168;2023-07-31T05:41:27;28.88;;;19.55;;
22007;SDS011;11168;56.976;24.168;2023-07-31T05:44:05;32.05;;;21.33;;
22007;SDS011;11168;56.976;24.168;2023-07-31T05:46:34;29.48;;;20.60;;
22007;SDS011;11168;56.976;24.168;2023-07-31T05:52:13;26.15;;;17.83;;
22007;SDS011;11168;56.976;24.168;2023-07-31T05:54:54;26.10;;;17.98;;
22007;SDS011;11168;56.976;24.168;2023-07-31T05:57:35;21.38;;;15.32;;
22007;SDS011;11168;56.976;24.168;2023-07-31T06:00:18;23.00;;;16.92;;
22007;SDS011;11168;56.976;24.168;2023-07-31T06:02:45;25.13;;;18.52;;
22007;SDS011;11168;56.976;24.168;2023-07-31T06:05:15;24.17;;;17.27;;
22007;SDS011;11168;56.976;24.168;2023-07-31T06:07:43;19.58;;;14.82;;
22007;SDS011;11168;56.976;24.168;2023-07-31T06:10:11;21.65;;;15.18;;
22007;SDS011;11168;56.976;24.168;2023-07-31T06:12:39;24.63;;;15.70;;
22007;SDS011;11168;56.976;24.168;2023-07-31T06:15:06;21.48;;;15.63;;
22007;SDS011;11168;56.976;24.168;2023-07-31T06:17:33;26.23;;;15.70;;
22007;SDS011;11168;56.976;24.168;2023-07-31T06:20:00;25.38;;;14.00;;
22007;SDS011;11168;56.976;24.168;2023-07-31T06:22:28;18.25;;;13.82;;
22007;SDS011;11168;56.976;24.168;2023-07-31T06:24:55;14.70;;;11.02;;
22007;SDS011;11168;56.976;24.168;2023-07-31T06:27:22;14.35;;;11.40;;
22007;SDS011;11168;56.976;24.168;2023-07-31T06:29:49;14.13;;;10.40;;
22007;SDS011;11168;56.976;24.168;2023-07-31T06:32:16;12.23;;;9.30;;
22007;SDS011;11168;56.976;24.168;2023-07-31T06:34:43;12.60;;;9.57;;
22007;SDS011;11168;56.976;24.168;2023-07-31T06:37:25;16.85;;;9.50;;
22007;SDS011;11168;56.976;24.168;2023-07-31T06:39:53;12.77;;;9.65;;
22007;SDS011;11168;56.976;24.168;2023-07-31T06:42:29;15.23;;;10.02;;
22007;SDS011;11168;56.976;24.168;2023-07-31T06:44:56;14.85;;;8.07;;
22007;SDS011;11168;56.976;24.168;2023-07-31T06:47:25;10.85;;;9.48;;
22007;SDS011;11168;56.976;24.168;2023-07-31T06:49:55;13.68;;;10.25;;
22007;SDS011;11168;56.976;24.168;2023-07-31T06:52:26;12.43;;;9.13;;
22007;SDS011;11168;56.976;24.168;2023-07-31T06:55:17;9.93;;;8.82;;
22007;SDS011;11168;56.976;24.168;2023-07-31T06:57:46;11.77;;;7.93;;
22007;SDS011;11168;56.976;24.168;2023-07-31T07:00:29;10.23;;;8.02;;
22007;SDS011;11168;56.976;24.168;2023-07-31T07:02:56;8.85;;;7.47;;
22007;SDS011;11168;56.976;24.168;2023-07-31T07:05:25;9.50;;;7.72;;
22007;SDS011;11168;56.976;24.168;2023-07-31T07:07:53;10.90;;;7.40;;
22007;SDS011;11168;56.976;24.168;2023-07-31T07:10:21;11.32;;;8.45;;
22007;SDS011;11168;56.976;24.168;2023-07-31T07:13:04;11.18;;;8.95;;
22007;SDS011;11168;56.976;24.168;2023-07-31T07:15:31;14.60;;;11.10;;
22007;SDS011;11168;56.976;24.168;2023-07-31T07:17:58;13.15;;;11.75;;
22007;SDS011;11168;56.976;24.168;2023-07-31T07:20:25;14.68;;;12.23;;
22007;SDS011;11168;56.976;24.168;2023-07-31T07:22:54;16.08;;;13.40;;
22007;SDS011;11168;56.976;24.168;2023-07-31T07:26:02;17.02;;;13.95;;
22007;SDS011;11168;56.976;24.168;2023-07-31T07:39:37;21.20;;;12.80;;
22007;SDS011;11168;56.976;24.168;2023-07-31T07:42:06;12.35;;;9.57;;
22007;SDS011;11168;56.976;24.168;2023-07-31T07:44:33;15.02;;;9.95;;
22007;SDS011;11168;56.976;24.168;2023-07-31T07:47:00;10.88;;;6.15;;
22007;SDS011;11168;56.976;24.168;2023-07-31T07:49:30;9.25;;;5.75;;
22007;SDS011;11168;56.976;24.168;2023-07-31T07:51:58;9.95;;;5.70;;
22007;SDS011;11168;56.976;24.168;2023-07-31T07:54:25;7.38;;;4.85;;
22007;SDS011;11168;56.976;24.168;2023-07-31T07:56:52;11.13;;;5.00;;
22007;SDS011;11168;56.976;24.168;2023-07-31T07:59:22;7.30;;;4.80;;
22007;SDS011;11168;56.976;24.168;2023-07-31T08:01:50;11.00;;;5.18;;
22007;SDS011;11168;56.976;24.168;2023-07-31T08:04:17;8.50;;;4.20;;
22007;SDS011;11168;56.976;24.168;2023-07-31T08:06:58;6.18;;;4.00;;
22007;SDS011;11168;56.976;24.168;2023-07-31T08:09:25;8.23;;;3.97;;
22007;SDS011;11168;56.976;24.168;2023-07-31T08:11:52;5.97;;;4.07;;
22007;SDS011;11168;56.976;24.168;2023-07-31T08:14:30;6.93;;;3.63;;
22007;SDS011;11168;56.976;24.168;2023-07-31T08:17:13;5.80;;;3.20;;
22007;SDS011;11168;56.976;24.168;2023-07-31T08:19:41;5.85;;;3.00;;
22007;SDS011;11168;56.976;24.168;2023-07-31T08:22:11;8.00;;;3.17;;
22007;SDS011;11168;56.976;24.168;2023-07-31T08:24:39;9.32;;;3.15;;
22007;SDS011;11168;56.976;24.168;2023-07-31T08:27:06;5.78;;;3.30;;
22007;SDS011;11168;56.976;24.168;2023-07-31T08:29:33;6.70;;;2.90;;
22007;SDS011;11168;56.976;24.168;2023-07-31T08:32:00;8.80;;;3.00;;
22007;SDS011;11168;56.976;24.168;2023-07-31T08:34:27;5.30;;;3.00;;
22007;SDS011;11168;56.976;24.168;2023-07-31T08:36:54;6.60;;;3.33;;
22007;SDS011;11168;56.976;24.168;2023-07-31T08:39:21;4.03;;;2.10;;
22007;SDS011;11168;56.976;24.168;2023-07-31T08:41:48;7.18;;;2.60;;
22007;SDS011;11168;56.976;24.168;2023-07-31T08:44:16;4.57;;;2.90;;
22007;SDS011;11168;56.976;24.168;2023-07-31T08:46:45;7.28;;;2.67;;
22007;SDS011;11168;56.976;24.168;2023-07-31T08:49:13;3.75;;;2.25;;
22007;SDS011;11168;56.976;24.168;2023-07-31T08:51:41;4.78;;;2.40;;
22007;SDS011;11168;56.976;24.168;2023-07-31T08:54:09;4.03;;;2.30;;
22007;SDS011;11168;56.976;24.168;2023-07-31T08:56:36;3.65;;;2.28;;
22007;SDS011;11168;56.976;24.168;2023-07-31T08:59:04;5.50;;;2.55;;
22007;SDS011;11168;56.976;24.168;2023-07-31T09:01:33;5.97;;;2.50;;
22007;SDS011;11168;56.976;24.168;2023-07-31T09:04:10;4.78;;;2.20;;
22007;SDS011;11168;56.976;24.168;2023-07-31T09:06:44;24.67;;;4.20;;
22007;SDS011;11168;56.976;24.168;2023-07-31T09:09:12;9.30;;;2.80;;
22007;SDS011;11168;56.976;24.168;2023-07-31T09:11:49;3.58;;;2.22;;
22007;SDS011;11168;56.976;24.168;2023-07-31T09:14:16;6.45;;;2.78;;
22007;SDS011;11168;56.976;24.168;2023-07-31T09:17:00;5.93;;;2.67;;
22007;SDS011;11168;56.976;24.168;2023-07-31T09:19:35;5.57;;;2.88;;
22007;SDS011;11168;56.976;24.168;2023-07-31T09:22:06;5.25;;;2.70;;
22007;SDS011;11168;56.976;24.168;2023-07-31T09:24:35;7.22;;;2.80;;
22007;SDS011;11168;56.976;24.168;2023-07-31T09:27:03;5.30;;;3.05;;
22007;SDS011;11168;56.976;24.168;2023-07-31T09:29:33;6.57;;;3.00;;
22007;SDS011;11168;56.976;24.168;2023-07-31T09:32:02;5.65;;;2.85;;
22007;SDS011;11168;56.976;24.168;2023-07-31T09:34:38;6.55;;;3.10;;
22007;SDS011;11168;56.976;24.168;2023-07-31T09:37:06;6.97;;;3.00;;
22007;SDS011;11168;56.976;24.168;2023-07-31T09:39:45;5.18;;;2.80;;
22007;SDS011;11168;56.976;24.168;2023-07-31T09:42:25;7.60;;;3.30;;
22007;SDS011;11168;56.976;24.168;2023-07-31T09:44:53;3.53;;;2.80;;
22007;SDS011;11168;56.976;24.168;2023-07-31T09:47:23;4.63;;;3.13;;
22007;SDS011;11168;56.976;24.168;2023-07-31T09:49:52;9.35;;;4.32;;
22007;SDS011;11168;56.976;24.168;2023-07-31T09:52:20;8.82;;;4.80;;
22007;SDS011;11168;56.976;24.168;2023-07-31T09:54:47;8.82;;;5.78;;
22007;SDS011;11168;56.976;24.168;2023-07-31T09:57:15;16.50;;;6.82;;
22007;SDS011;11168;56.976;24.168;2023-07-31T10:02:21;21.30;;;8.10;;
22007;SDS011;11168;56.976;24.168;2023-07-31T10:04:51;12.38;;;8.90;;
22007;SDS011;11168;56.976;24.168;2023-07-31T10:07:38;10.95;;;8.55;;
22007;SDS011;11168;56.976;24.168;2023-07-31T10:10:07;17.27;;;9.65;;
22007;SDS011;11168;56.976;24.168;2023-07-31T10:12:36;13.70;;;9.27;;
22007;SDS011;11168;56.976;24.168;2023-07-31T10:15:04;14.27;;;9.77;;
22007;SDS011;11168;56.976;24.168;2023-07-31T10:17:32;11.65;;;10.10;;
22007;SDS011;11168;56.976;24.168;2023-07-31T10:20:01;14.13;;;9.85;;
22007;SDS011;11168;56.976;24.168;2023-07-31T10:22:31;13.68;;;9.55;;
22007;SDS011;11168;56.976;24.168;2023-07-31T10:24:59;16.58;;;10.48;;
22007;SDS011;11168;56.976;24.168;2023-07-31T10:27:26;14.10;;;9.40;;
22007;SDS011;11168;56.976;24.168;2023-07-31T10:29:54;19.92;;;12.13;;
22007;SDS011;11168;56.976;24.168;2023-07-31T10:32:38;17.65;;;11.18;;
22007;SDS011;11168;56.976;24.168;2023-07-31T10:35:07;12.00;;;7.63;;
22007;SDS011;11168;56.976;24.168;2023-07-31T10:37:38;8.48;;;5.03;;
22007;SDS011;11168;56.976;24.168;2023-07-31T10:40:17;4.07;;;2.90;;
22007;SDS011;11168;56.976;24.168;2023-07-31T10:42:52;2.10;;;1.90;;
22007;SDS011;11168;56.976;24.168;2023-07-31T10:45:34;4.55;;;2.58;;
22007;SDS011;11168;56.976;24.168;2023-07-31T10:56:23;12.43;;;5.68;;
22007;SDS011;11168;56.976;24.168;2023-07-31T10:59:01;11.45;;;5.93;;
22007;SDS011;11168;56.976;24.168;2023-07-31T11:04:29;10.75;;;6.63;;
22007;SDS011;11168;56.976;24.168;2023-07-31T11:06:58;10.60;;;6.47;;
22007;SDS011;11168;56.976;24.168;2023-07-31T11:09:31;8.93;;;4.78;;
22007;SDS011;11168;56.976;24.168;2023-07-31T11:11:59;7.13;;;4.82;;
22007;SDS011;11168;56.976;24.168;2023-07-31T11:14:28;7.43;;;4.63;;
22007;SDS011;11168;56.976;24.168;2023-07-31T11:16:55;5.57;;;3.45;;
22007;SDS011;11168;56.976;24.168;2023-07-31T11:19:23;6.05;;;3.65;;
22007;SDS011;11168;56.976;24.168;2023-07-31T11:21:50;5.18;;;3.35;;
22007;SDS011;11168;56.976;24.168;2023-07-31T11:24:19;6.13;;;3.30;;
22007;SDS011;11168;56.976;24.168;2023-07-31T11:26:50;6.63;;;3.63;;
22007;SDS011;11168;56.976;24.168;2023-07-31T11:29:19;7.25;;;3.92;;
22007;SDS011;11168;56.976;24.168;2023-07-31T11:31:47;5.45;;;3.58;;
22007;SDS011;11168;56.976;24.168;2023-07-31T11:34:15;4.32;;;3.25;;
22007;SDS011;11168;56.976;24.168;2023-07-31T11:37:03;6.25;;;3.15;;
22007;SDS011;11168;56.976;24.168;2023-07-31T11:39:35;7.03;;;3.20;;
22007;SDS011;11168;56.976;24.168;2023-07-31T11:42:02;3.95;;;2.95;;
22007;SDS011;11168;56.976;24.168;2023-07-31T11:44:37;6.80;;;3.08;;
22007;SDS011;11168;56.976;24.168;2023-07-31T11:47:05;5.88;;;3.30;;
22007;SDS011;11168;56.976;24.168;2023-07-31T11:49:33;3.25;;;2.80;;
22007;SDS011;11168;56.976;24.168;2023-07-31T11:52:04;7.38;;;3.00;;
22007;SDS011;11168;56.976;24.168;2023-07-31T11:54:31;6.60;;;2.85;;
22007;SDS011;11168;56.976;24.168;2023-07-31T11:56:58;4.90;;;2.70;;
22007;SDS011;11168;56.976;24.168;2023-07-31T11:59:27;3.97;;;2.20;;
22007;SDS011;11168;56.976;24.168;2023-07-31T12:01:55;3.97;;;2.40;;
22007;SDS011;11168;56.976;24.168;2023-07-31T12:04:23;6.35;;;2.80;;
22007;SDS011;11168;56.976;24.168;2023-07-31T12:07:08;3.63;;;2.50;;
22007;SDS011;11168;56.976;24.168;2023-07-31T12:09:35;5.03;;;2.53;;
22007;SDS011;11168;56.976;24.168;2023-07-31T12:12:02;18.00;;;3.65;;
22007;SDS011;11168;56.976;24.168;2023-07-31T12:14:34;3.45;;;2.20;;
22007;SDS011;11168;56.976;24.168;2023-07-31T12:17:08;3.63;;;2.05;;
22007;SDS011;11168;56.976;24.168;2023-07-31T12:19:35;3.25;;;2.08;;
22007;SDS011;11168;56.976;24.168;2023-07-31T12:22:11;2.63;;;2.05;;
22007;SDS011;11168;56.976;24.168;2023-07-31T12:24:42;4.47;;;1.55;;
22007;SDS011;11168;56.976;24.168;2023-07-31T12:27:16;1.88;;;1.45;;
22007;SDS011;11168;56.976;24.168;2023-07-31T12:29:45;2.22;;;1.70;;
22007;SDS011;11168;56.976;24.168;2023-07-31T12:32:19;2.50;;;1.77;;
22007;SDS011;11168;56.976;24.168;2023-07-31T12:34:55;15.07;;;2.88;;
22007;SDS011;11168;56.976;24.168;2023-07-31T12:37:28;4.22;;;1.77;;
22007;SDS011;11168;56.976;24.168;2023-07-31T12:39:55;1.83;;;1.42;;
22007;SDS011;11168;56.976;24.168;2023-07-31T12:42:25;2.28;;;1.35;;
22007;SDS011;11168;56.976;24.168;2023-07-31T12:44:53;2.33;;;1.20;;
22007;SDS011;11168;56.976;24.168;2023-07-31T12:47:20;10.82;;;2.17;;
22007;SDS011;11168;56.976;24.168;2023-07-31T12:49:48;7.25;;;1.17;;
22007;SDS011;11168;56.976;24.168;2023-07-31T12:52:15;3.03;;;1.10;;
22007;SDS011;11168;56.976;24.168;2023-07-31T12:54:41;3.53;;;1.05;;
22007;SDS011;11168;56.976;24.168;2023-07-31T12:57:09;2.33;;;1.30;;
22007;SDS011;11168;56.976;24.168;2023-07-31T12:59:36;1.35;;;1.08;;
22007;SDS011;11168;56.976;24.168;2023-07-31T13:02:03;1.88;;;1.00;;
22007;SDS011;11168;56.976;24.168;2023-07-31T13:04:30;2.78;;;1.25;;
22007;SDS011;11168;56.976;24.168;2023-07-31T13:06:57;1.73;;;1.20;;
22007;SDS011;11168;56.976;24.168;2023-07-31T13:09:26;3.30;;;0.95;;
22007;SDS011;11168;56.976;24.168;2023-07-31T13:11:53;1.35;;;1.00;;
22007;SDS011;11168;56.976;24.168;2023-07-31T13:14:20;1.95;;;1.00;;
22007;SDS011;11168;56.976;24.168;2023-07-31T13:16:51;2.92;;;1.00;;
22007;SDS011;11168;56.976;24.168;2023-07-31T13:19:18;0.88;;;0.60;;
22007;SDS011;11168;56.976;24.168;2023-07-31T13:21:59;1.73;;;0.82;;
22007;SDS011;11168;56.976;24.168;2023-07-31T13:24:26;1.92;;;0.85;;
22007;SDS011;11168;56.976;24.168;2023-07-31T13:26:54;1.65;;;0.73;;
22007;SDS011;11168;56.976;24.168;2023-07-31T13:29:22;2.97;;;0.80;;
22007;SDS011;11168;56.976;24.168;2023-07-31T13:31:50;1.42;;;0.70;;
22007;SDS011;11168;56.976;24.168;2023-07-31T13:34:18;2.83;;;1.00;;
22007;SDS011;11168;56.976;24.168;2023-07-31T13:36:48;1.67;;;0.98;;
22007;SDS011;11168;56.976;24.168;2023-07-31T13:39:19;3.08;;;0.80;;
22007;SDS011;11168;56.976;24.168;2023-07-31T13:41:46;1.10;;;0.98;;
22007;SDS011;11168;56.976;24.168;2023-07-31T13:44:14;2.58;;;1.10;;
22007;SDS011;11168;56.976;24.168;2023-07-31T13:46:43;1.95;;;0.85;;
22007;SDS011;11168;56.976;24.168;2023-07-31T13:49:12;2.25;;;0.80;;
22007;SDS011;11168;56.976;24.168;2023-07-31T13:51:39;6.35;;;1.10;;
22007;SDS011;11168;56.976;24.168;2023-07-31T13:54:06;3.25;;;1.23;;
22007;SDS011;11168;56.976;24.168;2023-07-31T13:56:34;1.73;;;1.20;;
22007;SDS011;11168;56.976;24.168;2023-07-31T13:59:02;1.35;;;1.00;;
22007;SDS011;11168;56.976;24.168;2023-07-31T14:01:35;3.92;;;1.13;;
22007;SDS011;11168;56.976;24.168;2023-07-31T14:04:02;2.90;;;1.13;;
22007;SDS011;11168;56.976;24.168;2023-07-31T14:06:29;1.92;;;1.10;;
22007;SDS011;11168;56.976;24.168;2023-07-31T14:08:57;4.07;;;1.00;;
22007;SDS011;11168;56.976;24.168;2023-07-31T14:11:26;2.70;;;1.27;;
22007;SDS011;11168;56.976;24.168;2023-07-31T14:13:55;3.80;;;1.00;;
22007;SDS011;11168;56.976;24.168;2023-07-31T14:16:29;0.95;;;0.90;;
22007;SDS011;11168;56.976;24.168;2023-07-31T14:18:58;2.63;;;1.00;;
22007;SDS011;11168;56.976;24.168;2023-07-31T14:21:26;1.25;;;1.00;;
22007;SDS011;11168;56.976;24.168;2023-07-31T14:23:56;2.25;;;0.93;;
22007;SDS011;11168;56.976;24.168;2023-07-31T14:26:23;2.45;;;0.88;;
22007;SDS011;11168;56.976;24.168;2023-07-31T14:28:50;1.17;;;0.82;;
22007;SDS011;11168;56.976;24.168;2023-07-31T14:31:17;2.17;;;0.90;;
22007;SDS011;11168;56.976;24.168;2023-07-31T14:33:47;2.03;;;0.80;;
22007;SDS011;11168;56.976;24.168;2023-07-31T14:36:14;6.72;;;0.80;;
22007;SDS011;11168;56.976;24.168;2023-07-31T14:38:41;1.13;;;0.70;;
22007;SDS011;11168;56.976;24.168;2023-07-31T14:41:08;2.67;;;0.93;;
22007;SDS011;11168;56.976;24.168;2023-07-31T14:43:36;1.83;;;1.13;;
22007;SDS011;11168;56.976;24.168;2023-07-31T14:46:03;2.90;;;0.80;;
22007;SDS011;11168;56.976;24.168;2023-07-31T14:48:30;2.85;;;0.93;;
22007;SDS011;11168;56.976;24.168;2023-07-31T14:50:58;3.05;;;0.90;;
22007;SDS011;11168;56.976;24.168;2023-07-31T14:53:27;4.65;;;0.88;;
22007;SDS011;11168;56.976;24.168;2023-07-31T14:55:54;3.95;;;0.75;;
22007;SDS011;11168;56.976;24.168;2023-07-31T14:58:22;2.20;;;0.73;;
22007;SDS011;11168;56.976;24.168;2023-07-31T15:00:50;2.78;;;0.82;;
22007;SDS011;11168;56.976;24.168;2023-07-31T15:03:25;4.70;;;0.90;;
22007;SDS011;11168;56.976;24.168;2023-07-31T15:05:54;1.23;;;0.60;;
22007;SDS011;11168;56.976;24.168;2023-07-31T15:08:21;2.95;;;0.60;;
22007;SDS011;11168;56.976;24.168;2023-07-31T15:10:49;2.88;;;0.77;;
22007;SDS011;11168;56.976;24.168;2023-07-31T15:13:18;1.42;;;0.80;;
22007;SDS011;11168;56.976;24.168;2023-07-31T15:15:45;1.20;;;0.60;;
22007;SDS011;11168;56.976;24.168;2023-07-31T15:18:13;2.25;;;0.90;;
22007;SDS011;11168;56.976;24.168;2023-07-31T15:20:40;4.38;;;0.90;;
22007;SDS011;11168;56.976;24.168;2023-07-31T15:23:08;1.85;;;0.98;;
22007;SDS011;11168;56.976;24.168;2023-07-31T15:25:35;2.22;;;1.00;;
22007;SDS011;11168;56.976;24.168;2023-07-31T15:28:02;2.58;;;0.93;;
22007;SDS011;11168;56.976;24.168;2023-07-31T15:30:31;3.22;;;1.08;;
22007;SDS011;11168;56.976;24.168;2023-07-31T15:32:59;2.88;;;1.10;;
22007;SDS011;11168;56.976;24.168;2023-07-31T15:35:26;1.63;;;1.10;;
22007;SDS011;11168;56.976;24.168;2023-07-31T15:37:53;4.40;;;1.00;;
22007;SDS011;11168;56.976;24.168;2023-07-31T15:40:20;4.30;;;1.13;;
22007;SDS011;11168;56.976;24.168;2023-07-31T15:42:47;1.98;;;0.80;;
22007;SDS011;11168;56.976;24.168;2023-07-31T15:45:14;2.22;;;0.80;;